Time;durP1;ratioP1;P1;durP2;ratioP2;P2;SDS_P1;SDS_P2;PMS_P1;PMS_P2;Temp;Humidity;BMP_temperature;BMP_pressure;BME280_temperature;BME280_humidity;BME280_pressure;Samples;Min_cycle;Max_cycle;Signal;HPM_P1;HPM_P2
2022/12/04 00:02:21;;;;;;;45.92;21.67;;;2.90;99.90;;;;;;5097242;28;20212;-83
2022/12/04 00:04:47;;;;;;;59.08;21.98;;;2.90;99.90;;;;;;5097162;28;20227;-81
2022/12/04 00:07:13;;;;;;;56.38;23.40;;;2.80;99.90;;;;;;5096180;28;20162;-80
2022/12/04 00:09:38;;;;;;;45.25;21.52;;;2.70;99.90;;;;;;5096395;28;20563;-82
2022/12/04 00:12:04;;;;;;;48.03;20.13;;;2.80;99.90;;;;;;5096645;28;20169;-80
2022/12/04 00:14:30;;;;;;;48.97;21.80;;;2.80;99.90;;;;;;5096600;28;20169;-80
2022/12/04 00:16:55;;;;;;;49.72;21.92;;;2.60;99.90;;;;;;5096246;28;20241;-80
2022/12/04 00:19:21;;;;;;;50.78;22.83;;;2.50;99.90;;;;;;5097108;28;20538;-81
2022/12/04 00:21:48;;;;;;;54.20;22.58;;;2.60;99.90;;;;;;5098606;28;20194;-83
2022/12/04 00:24:14;;;;;;;50.03;22.15;;;2.60;99.90;;;;;;5098037;28;20177;-82
2022/12/04 00:26:40;;;;;;;54.03;22.77;;;2.60;99.90;;;;;;5097067;28;20169;-84
2022/12/04 00:29:05;;;;;;;46.75;20.63;;;2.50;99.90;;;;;;5098772;28;20172;-82
2022/12/04 00:31:31;;;;;;;57.72;22.15;;;2.60;99.90;;;;;;5099043;28;20673;-81
2022/12/04 00:33:58;;;;;;;54.30;22.70;;;2.60;99.90;;;;;;5097403;28;20620;-79
2022/12/04 00:36:26;;;;;;;53.95;23.02;;;2.60;99.90;;;;;;5094275;28;20519;-79
2022/12/04 00:38:52;;;;;;;66.18;24.80;;;2.60;99.90;;;;;;5093399;28;20275;-79
2022/12/04 00:41:20;;;;;;;51.78;23.10;;;2.50;99.90;;;;;;5094826;28;20293;-78
2022/12/04 00:43:46;;;;;;;49.95;22.38;;;2.70;99.90;;;;;;5094637;28;20174;-79
2022/12/04 00:46:13;;;;;;;58.28;22.98;;;2.60;99.90;;;;;;5094748;28;20193;-79
2022/12/04 00:48:40;;;;;;;50.80;23.08;;;2.60;99.90;;;;;;5094841;28;20169;-84
2022/12/04 00:51:09;;;;;;;44.10;17.55;;;2.70;99.90;;;;;;5095066;28;20268;-81
2022/12/04 00:53:35;;;;;;;48.63;23.00;;;2.60;99.90;;;;;;5095186;28;20503;-84
2022/12/04 00:56:05;;;;;;;71.40;25.42;;;2.50;99.90;;;;;;5094989;28;20248;-80
2022/12/04 00:58:31;;;;;;;47.33;21.08;;;2.50;99.90;;;;;;5094957;28;20169;-82
2022/12/04 01:01:09;;;;;;;54.55;21.98;;;2.60;99.90;;;;;;5094450;28;20524;-83
2022/12/04 01:03:38;;;;;;;51.05;21.35;;;2.50;99.90;;;;;;5094742;28;20226;-80
2022/12/04 01:06:04;;;;;;;53.15;22.52;;;2.70;99.90;;;;;;5094020;28;20162;-79
2022/12/04 01:08:30;;;;;;;48.88;22.13;;;2.60;99.90;;;;;;5092958;28;20162;-80
2022/12/04 01:10:55;;;;;;;55.58;23.10;;;2.70;99.90;;;;;;5093990;28;20238;-79
2022/12/04 01:13:22;;;;;;;47.65;22.92;;;2.80;99.90;;;;;;5093266;28;20646;-79
2022/12/04 01:15:48;;;;;;;44.47;19.25;;;2.90;99.90;;;;;;5094059;28;20699;-79
2022/12/04 01:18:14;;;;;;;52.67;22.40;;;3.00;99.90;;;;;;5103294;28;20166;-79
2022/12/04 01:20:45;;;;;;;53.28;22.50;;;2.90;99.90;;;;;;5103540;28;20233;-83
2022/12/04 01:23:10;;;;;;;55.75;23.50;;;2.90;99.90;;;;;;5094531;28;20174;-80
2022/12/04 01:25:36;;;;;;;63.75;25.15;;;3.10;99.90;;;;;;5094192;28;20696;-84
2022/12/04 01:28:02;;;;;;;50.08;23.13;;;3.00;99.90;;;;;;5094269;28;20249;-81
2022/12/04 01:30:27;;;;;;;53.75;23.15;;;3.00;99.90;;;;;;5092098;28;20193;-80
2022/12/04 01:32:53;;;;;;;56.08;23.70;;;3.10;99.90;;;;;;5092596;28;20828;-80
2022/12/04 01:35:18;;;;;;;59.05;23.77;;;3.00;99.90;;;;;;5092482;28;20165;-79
2022/12/04 01:37:44;;;;;;;54.75;22.60;;;3.10;99.90;;;;;;5092064;28;20256;-83
2022/12/04 01:40:14;;;;;;;60.85;23.80;;;2.90;99.90;;;;;;5091953;28;20221;-83
2022/12/04 01:42:40;;;;;;;60.40;21.23;;;2.90;99.90;;;;;;5093223;28;20633;-84
2022/12/04 01:45:35;;;;;;;54.03;21.83;;;2.90;99.90;;;;;;5093315;28;20199;-83
2022/12/04 01:48:26;;;;;;;63.72;24.60;;;2.80;99.90;;;;;;5092466;28;20261;-85
2022/12/04 01:50:57;;;;;;;60.15;23.20;;;2.60;99.90;;;;;;5092970;28;20209;-80
2022/12/04 01:53:23;;;;;;;60.15;23.55;;;2.70;99.90;;;;;;5093813;28;20162;-80
2022/12/04 01:55:49;;;;;;;53.70;19.80;;;2.80;99.90;;;;;;5092492;28;20161;-83
2022/12/04 01:58:22;;;;;;;58.00;25.10;;;2.70;99.90;;;;;;5093651;28;20161;-81
2022/12/04 02:00:52;;;;;;;55.50;23.88;;;2.80;99.90;;;;;;5092156;28;20270;-83
2022/12/04 02:03:18;;;;;;;58.97;24.88;;;2.80;99.90;;;;;;5092360;28;20173;-82
2022/12/04 02:05:44;;;;;;;54.88;22.02;;;2.80;99.90;;;;;;5091837;28;20216;-82
2022/12/04 02:08:09;;;;;;;52.20;23.35;;;2.90;99.90;;;;;;5092383;28;20207;-84
2022/12/04 02:10:50;;;;;;;56.15;23.80;;;2.80;99.90;;;;;;5091127;28;20181;-82
2022/12/04 02:13:24;;;;;;;45.13;17.85;;;2.80;99.90;;;;;;5092579;28;20211;-82
2022/12/04 02:16:15;;;;;;;55.92;23.33;;;2.60;99.90;;;;;;5092121;28;20153;-80
2022/12/04 02:19:06;;;;;;;56.90;22.48;;;2.70;99.90;;;;;;5091347;28;20660;-80
2022/12/04 02:21:37;;;;;;;54.78;21.83;;;2.50;99.90;;;;;;5092864;28;20197;-83
2022/12/04 02:24:36;;;;;;;59.92;22.35;;;2.60;99.90;;;;;;5093033;28;20166;-81
2022/12/04 02:27:10;;;;;;;34.53;16.60;;;2.60;99.90;;;;;;5092657;28;20173;-81
2022/12/04 02:29:56;;;;;;;58.08;23.08;;;2.70;99.90;;;;;;5092741;28;20166;-83
2022/12/04 02:32:44;;;;;;;44.47;19.55;;;2.80;99.90;;;;;;5093087;28;20248;-80
2022/12/04 02:35:32;;;;;;;56.92;21.58;;;2.70;99.90;;;;;;5091654;28;20519;-79
2022/12/04 02:38:16;;;;;;;59.35;24.83;;;2.70;99.90;;;;;;5091364;28;20176;-79
2022/12/04 02:40:53;;;;;;;58.63;23.58;;;2.70;99.90;;;;;;5090394;28;20218;-79
2022/12/04 02:43:28;;;;;;;52.80;22.27;;;2.60;99.90;;;;;;5070528;28;20197;-79
2022/12/04 02:46:09;;;;;;;54.60;22.15;;;2.60;99.90;;;;;;5070388;28;20645;-80
2022/12/04 02:48:40;;;;;;;55.22;21.80;;;2.70;99.90;;;;;;5070759;28;20170;-81
2022/12/04 02:51:09;;;;;;;52.35;21.60;;;2.80;99.90;;;;;;5070919;28;20194;-80
2022/12/04 02:53:39;;;;;;;62.05;23.52;;;2.90;99.90;;;;;;5071882;28;20171;-81
2022/12/04 02:56:09;;;;;;;57.72;24.70;;;2.90;99.90;;;;;;5072025;28;20245;-81
2022/12/04 02:58:58;;;;;;;53.72;22.58;;;2.80;99.90;;;;;;5072262;28;20537;-82
2022/12/04 03:01:30;;;;;;;53.05;23.20;;;2.70;99.90;;;;;;5072391;28;20608;-80
2022/12/04 03:04:22;;;;;;;52.25;22.98;;;2.80;99.90;;;;;;5072388;28;20174;-81
2022/12/04 03:07:14;;;;;;;57.10;23.30;;;2.80;99.90;;;;;;5072125;28;20221;-85
2022/12/04 03:09:50;;;;;;;53.75;23.15;;;2.80;99.90;;;;;;5065192;28;20182;-82
2022/12/04 03:12:20;;;;;;;67.80;24.90;;;2.90;99.90;;;;;;5072721;28;20180;-85
2022/12/04 03:14:59;;;;;;;58.35;24.38;;;3.00;99.90;;;;;;5070878;28;20220;-80
2022/12/04 03:17:40;;;;;;;48.88;21.42;;;2.90;99.90;;;;;;5070676;28;20171;-81
2022/12/04 03:20:10;;;;;;;53.13;23.25;;;2.90;99.90;;;;;;5071841;28;20206;-80
2022/12/04 03:22:39;;;;;;;60.00;23.58;;;2.80;99.90;;;;;;5072322;28;20236;-80
2022/12/04 03:25:07;;;;;;;53.10;22.25;;;2.80;99.90;;;;;;5072179;28;20169;-81
2022/12/04 03:27:59;;;;;;;66.72;22.95;;;2.60;99.90;;;;;;5072090;28;20167;-78
2022/12/04 03:30:25;;;;;;;58.10;22.25;;;2.80;99.90;;;;;;5070933;28;20655;-79
2022/12/04 03:32:56;;;;;;;64.85;23.05;;;2.80;99.90;;;;;;5072032;28;20163;-79
2022/12/04 03:35:23;;;;;;;55.15;24.17;;;3.00;99.90;;;;;;5071948;28;20257;-80
2022/12/04 03:38:21;;;;;;;56.28;22.45;;;2.90;99.90;;;;;;5072237;28;20172;-78
2022/12/04 03:41:16;;;;;;;62.50;23.02;;;2.90;99.90;;;;;;5079250;28;20686;-81
2022/12/04 03:43:51;;;;;;;51.30;21.25;;;2.90;99.90;;;;;;5094631;28;20175;-80
2022/12/04 03:46:26;;;;;;;58.83;23.42;;;3.00;99.90;;;;;;5075025;28;20178;-79
2022/12/04 03:49:18;;;;;;;55.28;23.92;;;2.80;99.90;;;;;;5074405;28;20166;-80
2022/12/04 03:51:52;;;;;;;66.32;24.88;;;2.90;99.90;;;;;;5073074;28;20598;-80
2022/12/04 03:54:29;;;;;;;57.28;24.17;;;2.80;99.90;;;;;;5074288;28;20646;-83
2022/12/04 03:57:00;;;;;;;47.53;21.40;;;2.80;99.90;;;;;;5075563;28;20190;-80
2022/12/04 03:59:37;;;;;;;62.78;23.50;;;2.80;99.90;;;;;;5075619;28;20198;-80
2022/12/04 04:02:06;;;;;;;61.10;23.75;;;2.80;99.90;;;;;;5074234;28;20162;-80
2022/12/04 04:04:36;;;;;;;66.82;24.15;;;2.90;99.90;;;;;;5075124;28;20167;-79
2022/12/04 04:07:11;;;;;;;56.75;23.77;;;2.90;99.90;;;;;;5074222;28;20645;-79
2022/12/04 04:09:41;;;;;;;55.10;22.38;;;2.90;99.90;;;;;;5075390;28;20264;-80
2022/12/04 04:12:17;;;;;;;57.03;23.35;;;2.90;99.90;;;;;;5075241;28;20224;-84
2022/12/04 04:26:06;;;;;;;51.63;21.75;;;2.80;99.90;;;;;;5074000;28;20649;-81
2022/12/04 04:28:35;;;;;;;55.00;23.98;;;2.80;99.90;;;;;;5073689;28;20170;-81
2022/12/04 04:31:11;;;;;;;55.17;22.27;;;2.90;99.90;;;;;;5072367;28;20189;-81
2022/12/04 04:33:52;;;;;;;52.35;21.42;;;2.80;99.90;;;;;;5074099;28;20265;-84
2022/12/04 04:36:41;;;;;;;38.88;18.15;;;2.90;99.90;;;;;;5076022;28;20168;-81
2022/12/04 04:39:24;;;;;;;52.10;23.05;;;2.80;99.90;;;;;;5080572;28;20198;-80
2022/12/04 04:42:02;;;;;;;47.20;22.60;;;2.70;99.90;;;;;;5077655;28;20191;-83
2022/12/04 04:44:33;;;;;;;38.50;16.73;;;2.70;99.90;;;;;;5086666;28;20174;-80
2022/12/04 04:47:02;;;;;;;47.28;18.40;;;2.70;99.90;;;;;;5082997;28;20194;-80
2022/12/04 04:49:32;;;;;;;35.80;16.70;;;2.90;99.90;;;;;;5075355;28;20170;-79
2022/12/04 04:51:59;;;;;;;47.63;22.05;;;2.90;99.90;;;;;;5074140;28;20238;-81
2022/12/04 04:54:26;;;;;;;57.72;23.73;;;2.90;99.90;;;;;;5077027;28;20562;-80
2022/12/04 04:56:52;;;;;;;44.10;21.67;;;2.80;99.90;;;;;;5076470;28;20216;-80
2022/12/04 04:59:18;;;;;;;50.65;21.98;;;2.90;99.90;;;;;;5085269;28;20207;-80
2022/12/04 05:01:45;;;;;;;53.22;21.20;;;3.10;99.90;;;;;;5075688;28;20678;-78
2022/12/04 05:04:11;;;;;;;67.32;24.08;;;3.00;99.90;;;;;;5076810;28;20174;-80
2022/12/04 05:06:37;;;;;;;52.45;21.42;;;3.00;99.90;;;;;;5077496;28;20170;-80
2022/12/04 05:09:03;;;;;;;44.28;21.55;;;2.90;99.90;;;;;;5077212;28;20169;-81
2022/12/04 05:11:30;;;;;;;61.58;23.83;;;2.90;99.90;;;;;;5076631;28;20598;-80
2022/12/04 05:13:55;;;;;;;62.20;24.45;;;2.80;99.90;;;;;;5075165;28;20181;-78
2022/12/04 05:16:21;;;;;;;58.78;21.92;;;2.90;99.90;;;;;;5075908;28;20876;-83
2022/12/04 05:21:32;;;;;;;56.17;23.10;;;2.90;99.90;;;;;;5081554;28;20213;-80
2022/12/04 05:23:58;;;;;;;51.95;23.58;;;3.00;99.90;;;;;;5083685;28;20162;-81
2022/12/04 05:26:23;;;;;;;48.05;23.67;;;3.00;99.90;;;;;;5081230;28;20186;-85
2022/12/04 05:28:49;;;;;;;50.80;23.60;;;3.10;99.90;;;;;;5081484;28;20521;-81
2022/12/04 05:31:15;;;;;;;50.58;23.15;;;3.30;99.90;;;;;;5080440;28;20191;-85
2022/12/04 05:33:40;;;;;;;54.33;22.40;;;3.30;99.90;;;;;;5079995;28;20166;-86
2022/12/04 05:36:08;;;;;;;35.95;19.35;;;3.20;99.90;;;;;;5080713;28;20173;-80
2022/12/04 05:38:35;;;;;;;50.67;22.05;;;3.20;99.90;;;;;;5079143;28;20178;-84
2022/12/04 05:41:03;;;;;;;56.92;23.23;;;3.10;99.90;;;;;;5079336;28;20222;-84
2022/12/04 05:43:29;;;;;;;55.55;23.67;;;3.10;99.90;;;;;;5081701;28;20227;-80
2022/12/04 05:45:58;;;;;;;71.88;24.75;;;3.20;99.90;;;;;;5082253;28;20188;-84
2022/12/04 05:48:24;;;;;;;52.85;22.20;;;3.30;99.90;;;;;;5082147;28;20170;-80
2022/12/04 05:50:50;;;;;;;54.85;23.60;;;3.30;99.90;;;;;;5081886;28;20205;-81
2022/12/04 05:53:15;;;;;;;55.65;23.23;;;3.10;99.90;;;;;;5083225;28;20171;-80
2022/12/04 05:55:41;;;;;;;56.10;22.38;;;3.40;99.90;;;;;;5078853;28;20221;-80
2022/12/04 05:58:06;;;;;;;51.60;23.52;;;3.50;99.90;;;;;;5082070;28;20182;-83
2022/12/04 06:00:32;;;;;;;48.72;23.33;;;3.30;99.90;;;;;;5079203;28;20275;-80
2022/12/04 06:02:58;;;;;;;60.80;24.85;;;3.00;99.90;;;;;;5079473;28;20245;-79
2022/12/04 06:05:24;;;;;;;55.60;23.85;;;3.10;99.90;;;;;;5083381;28;20572;-83
2022/12/04 06:07:49;;;;;;;60.97;25.60;;;3.10;99.90;;;;;;5080746;28;20256;-86
2022/12/04 06:10:15;;;;;;;58.75;24.85;;;3.00;99.90;;;;;;5081223;28;20238;-84
2022/12/04 06:12:41;;;;;;;60.17;23.85;;;3.00;99.90;;;;;;5074309;28;20158;-83
2022/12/04 06:15:09;;;;;;;56.72;24.27;;;2.90;99.90;;;;;;5078509;28;20158;-81
2022/12/04 06:17:34;;;;;;;58.30;24.63;;;3.10;99.90;;;;;;5079542;28;20205;-81
2022/12/04 06:20:00;;;;;;;48.92;23.17;;;3.20;99.90;;;;;;5091512;28;20198;-79
2022/12/04 06:22:35;;;;;;;57.45;24.75;;;3.20;99.90;;;;;;5083612;28;20186;-81
2022/12/04 06:25:00;;;;;;;52.10;24.15;;;3.10;99.90;;;;;;5078786;28;20169;-84
2022/12/04 06:27:26;;;;;;;59.72;23.95;;;3.20;99.90;;;;;;5078192;28;20170;-79
2022/12/04 06:29:57;;;;;;;62.15;25.02;;;3.20;99.90;;;;;;5083308;28;20182;-81
2022/12/04 06:32:23;;;;;;;54.75;22.60;;;3.10;99.90;;;;;;5083607;28;20170;-83
2022/12/04 06:34:51;;;;;;;57.80;24.42;;;3.00;99.90;;;;;;5082988;28;20198;-84
2022/12/04 06:37:18;;;;;;;59.05;25.80;;;2.90;99.90;;;;;;5065114;28;20210;-80
2022/12/04 06:39:44;;;;;;;58.05;25.45;;;3.00;99.90;;;;;;5084457;28;20202;-80
2022/12/04 06:42:09;;;;;;;52.28;23.90;;;3.10;99.90;;;;;;5083269;28;20211;-81
2022/12/04 06:44:35;;;;;;;59.05;24.20;;;3.00;99.90;;;;;;5079874;28;20163;-80
2022/12/04 06:47:01;;;;;;;54.53;22.60;;;2.90;99.90;;;;;;5081009;28;20249;-80
2022/12/04 06:49:27;;;;;;;54.03;23.67;;;2.90;99.90;;;;;;5078599;28;20166;-79
2022/12/04 06:51:54;;;;;;;58.63;24.70;;;3.00;99.90;;;;;;5079045;28;20730;-80
2022/12/04 06:54:19;;;;;;;55.97;24.77;;;3.00;99.90;;;;;;5078490;28;20254;-78
2022/12/04 06:56:47;;;;;;;50.08;22.83;;;3.10;99.90;;;;;;5088766;28;20162;-84
2022/12/04 06:59:13;;;;;;;49.38;22.17;;;3.10;99.90;;;;;;5085436;28;20210;-77
2022/12/04 07:01:38;;;;;;;54.50;23.17;;;2.90;99.90;;;;;;5080975;28;20206;-82
2022/12/04 07:04:04;;;;;;;61.85;24.48;;;2.90;99.90;;;;;;5085605;28;20170;-80
2022/12/04 07:06:32;;;;;;;57.00;22.52;;;3.00;99.90;;;;;;5079941;28;20167;-82
2022/12/04 07:09:01;;;;;;;49.65;23.48;;;2.90;99.90;;;;;;5082605;28;20179;-77
2022/12/04 07:11:27;;;;;;;52.70;23.27;;;3.00;99.90;;;;;;5079981;28;20186;-79
2022/12/04 07:16:20;;;;;;;57.60;24.30;;;3.00;99.90;;;;;;5075367;28;20633;-81
2022/12/04 07:18:52;;;;;;;62.40;24.85;;;3.00;99.90;;;;;;5079721;28;20504;-80
2022/12/04 07:21:20;;;;;;;55.42;24.35;;;3.00;99.90;;;;;;5078879;28;20319;-82
2022/12/04 07:23:55;;;;;;;59.80;25.13;;;3.00;99.90;;;;;;5077393;28;20163;-83
2022/12/04 07:26:20;;;;;;;58.75;25.05;;;2.80;99.90;;;;;;5079198;28;20507;-85
2022/12/04 07:28:46;;;;;;;46.83;20.42;;;3.00;99.90;;;;;;5076120;28;20216;-80
2022/12/04 07:31:15;;;;;;;56.95;23.60;;;3.10;99.90;;;;;;5076077;28;20183;-81
2022/12/04 07:33:42;;;;;;;53.10;23.45;;;2.90;99.90;;;;;;5076199;28;20196;-80
2022/12/04 07:36:10;;;;;;;49.65;22.45;;;2.90;99.90;;;;;;5076268;28;20163;-80
2022/12/04 07:38:36;;;;;;;50.75;23.85;;;2.90;99.90;;;;;;5076018;28;20185;-82
2022/12/04 07:41:06;;;;;;;55.35;24.65;;;3.00;99.90;;;;;;5075615;28;20199;-79
2022/12/04 07:43:32;;;;;;;38.88;18.13;;;3.00;99.90;;;;;;5075990;28;20534;-80
2022/12/04 07:46:03;;;;;;;57.13;23.80;;;2.90;99.90;;;;;;5075597;28;20234;-79
2022/12/04 07:48:28;;;;;;;53.00;22.63;;;2.80;99.90;;;;;;5075662;28;20186;-79
2022/12/04 07:51:10;;;;;;;55.83;25.98;;;2.90;99.90;;;;;;5075255;28;20182;-79
2022/12/04 07:53:37;;;;;;;56.47;23.95;;;2.90;99.90;;;;;;5074290;28;20179;-83
2022/12/04 07:56:04;;;;;;;57.42;24.15;;;2.90;99.90;;;;;;5074221;28;20239;-81
2022/12/04 07:58:30;;;;;;;54.35;24.27;;;3.00;99.90;;;;;;5075890;28;20177;-83
2022/12/04 08:01:11;;;;;;;58.70;24.95;;;3.00;99.90;;;;;;5075534;28;20203;-82
2022/12/04 08:03:41;;;;;;;52.72;24.55;;;2.90;99.90;;;;;;5075344;28;20158;-84
2022/12/04 08:06:07;;;;;;;57.95;25.15;;;2.80;99.90;;;;;;5075604;28;20173;-84
2022/12/04 08:08:34;;;;;;;57.75;24.35;;;2.90;99.90;;;;;;5075399;28;20167;-86
2022/12/04 08:11:00;;;;;;;57.85;26.42;;;3.00;99.90;;;;;;5075817;28;20527;-84
2022/12/04 08:13:25;;;;;;;57.00;24.50;;;2.90;99.90;;;;;;5075918;28;20193;-85
2022/12/04 08:15:51;;;;;;;51.80;24.98;;;3.00;99.90;;;;;;5075677;28;20202;-84
2022/12/04 08:18:19;;;;;;;53.58;23.17;;;2.90;99.90;;;;;;5075510;28;20163;-83
2022/12/04 08:20:45;;;;;;;60.60;26.10;;;3.00;99.90;;;;;;5075427;28;20214;-80
2022/12/04 08:23:11;;;;;;;36.65;19.05;;;3.10;99.90;;;;;;5075360;28;20189;-85
2022/12/04 08:25:40;;;;;;;50.47;22.98;;;3.10;99.90;;;;;;5075099;28;20166;-85
2022/12/04 08:28:06;;;;;;;52.63;24.05;;;3.10;99.90;;;;;;5074820;28;20166;-84
2022/12/04 08:30:32;;;;;;;58.70;24.10;;;3.10;99.90;;;;;;5075258;28;20642;-82
2022/12/04 08:32:58;;;;;;;51.35;23.25;;;3.20;99.90;;;;;;5075035;28;20163;-80
2022/12/04 08:35:23;;;;;;;56.17;24.13;;;3.30;99.90;;;;;;5073457;28;20167;-85
2022/12/04 08:37:49;;;;;;;41.20;19.02;;;3.20;99.90;;;;;;5074867;28;20514;-81
2022/12/04 08:40:16;;;;;;;51.63;20.58;;;3.10;99.90;;;;;;5074333;28;20231;-84
2022/12/04 08:42:49;;;;;;;55.33;24.58;;;3.20;99.90;;;;;;5074044;28;20249;-79
2022/12/04 08:45:15;;;;;;;53.83;24.05;;;3.30;99.90;;;;;;5074202;28;20166;-83
2022/12/04 08:47:41;;;;;;;53.85;23.15;;;3.30;99.90;;;;;;5074435;28;20536;-79
2022/12/04 08:50:06;;;;;;;59.95;24.73;;;3.50;99.90;;;;;;5074750;28;20201;-82
2022/12/04 08:52:32;;;;;;;55.08;23.75;;;3.50;99.90;;;;;;5072900;28;20174;-80
2022/12/04 08:54:58;;;;;;;49.50;22.70;;;3.30;99.90;;;;;;5073427;28;20224;-79
2022/12/04 08:57:23;;;;;;;54.58;24.92;;;3.30;99.90;;;;;;5073395;28;20175;-81
2022/12/04 08:59:49;;;;;;;48.85;24.40;;;3.40;99.90;;;;;;5074509;28;20248;-86
2022/12/04 09:02:17;;;;;;;47.28;23.02;;;3.40;99.90;;;;;;5073766;28;20171;-82
2022/12/04 09:04:42;;;;;;;55.60;24.90;;;3.30;99.90;;;;;;5074799;28;20190;-81
2022/12/04 09:07:08;;;;;;;58.50;26.40;;;3.30;99.90;;;;;;5073784;28;20217;-81
2022/12/04 09:09:34;;;;;;;48.00;22.20;;;3.30;99.90;;;;;;5075927;28;20174;-80
2022/12/04 09:11:59;;;;;;;54.10;24.70;;;3.20;99.90;;;;;;5075413;28;20633;-83
2022/12/04 09:14:25;;;;;;;62.45;25.85;;;3.10;99.90;;;;;;5074467;28;20231;-78
2022/12/04 09:17:12;;;;;;;60.75;24.83;;;3.30;99.90;;;;;;5073320;28;20744;-81
2022/12/04 09:19:37;;;;;;;54.38;24.80;;;3.30;99.90;;;;;;5076903;28;20697;-86
2022/12/04 09:22:03;;;;;;;58.53;25.60;;;3.30;99.90;;;;;;5074213;28;20242;-82
2022/12/04 09:24:30;;;;;;;56.00;23.70;;;3.40;99.90;;;;;;5074594;28;20198;-80
2022/12/04 09:26:55;;;;;;;54.05;24.80;;;3.40;99.90;;;;;;5076177;28;20167;-85
2022/12/04 09:29:21;;;;;;;47.85;22.17;;;3.50;99.90;;;;;;5073182;28;20657;-86
2022/12/04 09:31:47;;;;;;;52.63;23.38;;;3.40;99.90;;;;;;5073365;28;20681;-83
2022/12/04 09:34:12;;;;;;;44.22;21.38;;;3.40;99.90;;;;;;5074863;28;20177;-80
2022/12/04 09:36:38;;;;;;;55.70;22.75;;;3.40;99.90;;;;;;5073148;28;20167;-80
2022/12/04 09:39:04;;;;;;;30.50;17.20;;;3.30;99.90;;;;;;5074356;28;20650;-79
2022/12/04 09:41:45;;;;;;;45.42;20.88;;;3.40;99.90;;;;;;5075515;28;20198;-80
2022/12/04 09:44:31;;;;;;;27.20;16.35;;;3.40;99.90;;;;;;5073077;28;20212;-83
2022/12/04 09:47:08;;;;;;;45.10;20.88;;;3.50;99.90;;;;;;5074293;28;20163;-82
2022/12/04 09:49:40;;;;;;;49.10;22.33;;;3.60;99.90;;;;;;5075021;28;20244;-81
2022/12/04 09:52:31;;;;;;;52.88;23.52;;;3.80;99.90;;;;;;5073637;28;20212;-81
2022/12/04 09:54:58;;;;;;;44.10;20.63;;;3.70;99.90;;;;;;5074012;28;20254;-80
2022/12/04 09:57:27;;;;;;;44.35;22.85;;;3.60;99.90;;;;;;5073596;28;20505;-85
2022/12/04 09:59:53;;;;;;;49.95;21.88;;;3.70;99.90;;;;;;5073266;28;20205;-79
2022/12/04 10:02:36;;;;;;;46.17;20.42;;;3.60;99.90;;;;;;5073345;28;20643;-81
2022/12/04 10:05:02;;;;;;;49.28;21.35;;;3.70;99.90;;;;;;5072008;28;20527;-80
2022/12/04 10:07:42;;;;;;;46.10;20.95;;;3.90;99.90;;;;;;5073749;28;20162;-85
2022/12/04 10:10:37;;;;;;;40.55;19.70;;;4.10;99.90;;;;;;5074618;28;20186;-86
2022/12/04 10:13:21;;;;;;;34.72;18.35;;;3.80;99.90;;;;;;5074546;28;20162;-85
2022/12/04 10:16:03;;;;;;;36.95;19.88;;;3.50;99.90;;;;;;5074636;28;20269;-85
2022/12/04 10:18:54;;;;;;;43.40;19.42;;;3.50;99.90;;;;;;5073876;28;20166;-86
2022/12/04 10:21:52;;;;;;;41.47;20.42;;;3.40;99.90;;;;;;5073443;28;20221;-86
2022/12/04 10:24:51;;;;;;;41.20;19.67;;;3.40;99.90;;;;;;5073784;28;20178;-87
2022/12/04 10:27:25;;;;;;;33.17;15.73;;;3.40;99.90;;;;;;5073396;28;20186;-86
2022/12/04 10:30:01;;;;;;;40.20;19.58;;;3.40;99.90;;;;;;5073564;28;20192;-85
2022/12/04 10:32:31;;;;;;;40.95;19.08;;;3.50;99.90;;;;;;5073686;28;20170;-83
2022/12/04 10:35:09;;;;;;;36.03;17.70;;;3.40;99.90;;;;;;5074072;28;20222;-85
2022/12/04 10:37:39;;;;;;;39.80;18.55;;;3.30;99.90;;;;;;5074208;28;20177;-84
2022/12/04 10:40:19;;;;;;;34.78;17.40;;;3.30;99.90;;;;;;5073266;28;20214;-86
2022/12/04 10:43:10;;;;;;;44.38;18.95;;;3.40;99.90;;;;;;5073503;28;20614;-83
2022/12/04 10:45:36;;;;;;;37.80;18.13;;;3.60;99.90;;;;;;5073707;28;20258;-84
2022/12/04 10:48:02;;;;;;;32.85;17.25;;;3.80;99.90;;;;;;5073727;28;20634;-85
2022/12/04 10:50:27;;;;;;;41.03;18.55;;;3.70;99.90;;;;;;5073555;28;20182;-84
2022/12/04 10:52:53;;;;;;;38.38;20.05;;;3.50;99.90;;;;;;5071907;28;20966;-87
2022/12/04 10:55:30;;;;;;;35.38;16.88;;;3.60;99.90;;;;;;5073449;28;20208;-86
2022/12/04 10:57:56;;;;;;;31.23;17.65;;;3.60;99.90;;;;;;5073274;28;20166;-85
2022/12/04 11:00:29;;;;;;;45.40;18.48;;;3.50;99.90;;;;;;5071985;28;20259;-84
2022/12/04 11:02:58;;;;;;;34.15;17.23;;;3.50;99.90;;;;;;5072195;28;20238;-83
2022/12/04 11:05:28;;;;;;;30.60;18.23;;;3.60;99.90;;;;;;5073691;28;20162;-82
2022/12/04 11:07:55;;;;;;;33.70;17.38;;;3.50;99.90;;;;;;5073479;28;20197;-84
2022/12/04 11:10:42;;;;;;;31.45;17.52;;;3.60;99.90;;;;;;5072648;28;20239;-86
2022/12/04 11:13:17;;;;;;;30.27;17.25;;;3.50;99.90;;;;;;5072798;28;20170;-79
2022/12/04 11:15:45;;;;;;;34.88;16.88;;;3.40;99.90;;;;;;5071769;28;20166;-80
2022/12/04 11:18:32;;;;;;;31.10;16.20;;;3.40;99.90;;;;;;5072740;28;20177;-85
2022/12/04 11:21:01;;;;;;;27.75;16.38;;;3.30;99.90;;;;;;5073187;28;20242;-82
2022/12/04 11:23:48;;;;;;;35.45;18.05;;;3.30;99.90;;;;;;5073284;28;20684;-79
2022/12/04 11:26:15;;;;;;;32.83;18.02;;;3.40;99.90;;;;;;5076423;28;20178;-80
2022/12/04 11:28:52;;;;;;;28.52;15.95;;;3.30;99.90;;;;;;5074535;28;20212;-84
2022/12/04 11:31:20;;;;;;;36.17;17.95;;;3.40;99.90;;;;;;5081065;28;20182;-78
2022/12/04 11:33:50;;;;;;;28.73;15.77;;;3.40;99.90;;;;;;5075139;28;20254;-80
2022/12/04 11:36:27;;;;;;;30.65;15.75;;;3.50;99.90;;;;;;5072281;28;20633;-79
2022/12/04 11:39:14;;;;;;;31.38;16.83;;;3.60;99.90;;;;;;5072124;28;20207;-79
2022/12/04 11:41:40;;;;;;;27.52;15.30;;;3.60;99.90;;;;;;5071683;28;20359;-80
2022/12/04 11:44:20;;;;;;;33.95;17.60;;;3.40;99.90;;;;;;5072183;28;20651;-80
2022/12/04 11:46:52;;;;;;;26.20;14.82;;;3.40;99.90;;;;;;5071851;28;20650;-79
2022/12/04 11:49:26;;;;;;;31.52;16.15;;;3.40;99.90;;;;;;5069990;28;20223;-79
2022/12/04 11:52:04;;;;;;;29.73;16.70;;;3.50;99.90;;;;;;5071704;28;20677;-82
2022/12/04 11:54:41;;;;;;;25.60;15.93;;;3.50;99.90;;;;;;5073371;28;20162;-79
2022/12/04 11:57:37;;;;;;;26.58;15.70;;;3.70;99.90;;;;;;5072321;28;20170;-80
2022/12/04 12:00:09;;;;;;;29.70;16.33;;;3.60;99.90;;;;;;5081845;28;20210;-79
2022/12/04 12:02:56;;;;;;;32.28;17.25;;;3.60;99.90;;;;;;5091346;28;20174;-81
2022/12/04 12:05:34;;;;;;;30.02;16.63;;;3.70;99.90;;;;;;5075446;28;20265;-80
2022/12/04 12:08:30;;;;;;;35.33;17.25;;;3.60;99.90;;;;;;5077178;28;20666;-83
2022/12/04 12:10:59;;;;;;;34.75;18.05;;;3.60;99.90;;;;;;5076021;28;20182;-80
2022/12/04 12:13:36;;;;;;;33.58;17.25;;;3.80;99.90;;;;;;5076329;28;20708;-84
2022/12/04 12:16:26;;;;;;;31.23;16.77;;;4.00;99.90;;;;;;5076845;28;20194;-83
2022/12/04 12:18:57;;;;;;;31.65;18.52;;;3.90;99.90;;;;;;5074707;28;20178;-81
2022/12/04 12:21:36;;;;;;;31.00;16.70;;;3.90;99.90;;;;;;5076085;28;20210;-84
2022/12/04 12:24:23;;;;;;;34.83;17.60;;;3.70;99.90;;;;;;5074042;28;20166;-80
2022/12/04 12:27:23;;;;;;;31.85;17.45;;;3.50;99.90;;;;;;5073712;28;20178;-87
2022/12/04 12:30:00;;;;;;;35.72;18.05;;;3.60;99.90;;;;;;5075143;28;20185;-81
2022/12/04 12:32:42;;;;;;;33.33;16.23;;;3.50;99.90;;;;;;5075014;28;20166;-83
2022/12/04 12:35:23;;;;;;;27.10;16.05;;;3.60;99.90;;;;;;5073288;28;20181;-80
2022/12/04 12:37:54;;;;;;;27.70;15.52;;;3.60;99.90;;;;;;5073700;28;20183;-83
2022/12/04 12:41:07;;;;;;;27.35;14.93;;;3.50;99.90;;;;;;5074332;28;20214;-83
2022/12/04 12:43:37;;;;;;;24.33;14.60;;;3.60;99.90;;;;;;5029984;28;20179;-85
2022/12/04 12:46:15;;;;;;;22.45;13.65;;;3.70;99.90;;;;;;5073692;28;20643;-83
2022/12/04 12:49:12;;;;;;;30.95;15.23;;;3.70;99.90;;;;;;5074493;28;20174;-83
2022/12/04 12:51:38;;;;;;;29.13;13.90;;;4.00;99.90;;;;;;5071968;28;20206;-86
2022/12/04 12:54:22;;;;;;;25.00;14.68;;;4.20;99.90;;;;;;5074582;28;20173;-80
2022/12/04 12:56:52;;;;;;;29.15;14.07;;;4.00;99.90;;;;;;5075117;28;20235;-80
2022/12/04 12:59:25;;;;;;;23.58;13.38;;;4.00;99.90;;;;;;5075106;28;20173;-80
2022/12/04 13:02:00;;;;;;;21.88;13.38;;;4.10;99.90;;;;;;5077107;28;20191;-79
2022/12/04 13:04:43;;;;;;;19.40;11.63;;;4.00;99.90;;;;;;5062912;28;20170;-81
2022/12/04 13:07:17;;;;;;;26.27;12.98;;;3.80;99.90;;;;;;5073337;28;20178;-78
2022/12/04 13:10:15;;;;;;;22.27;12.95;;;3.70;99.90;;;;;;5076638;28;20176;-83
2022/12/04 13:13:09;;;;;;;24.80;12.95;;;3.50;99.90;;;;;;5079951;28;20198;-80
2022/12/04 13:15:52;;;;;;;16.52;11.10;;;3.50;99.90;;;;;;5078723;28;20662;-82
2022/12/04 13:18:22;;;;;;;15.88;11.23;;;3.50;99.90;;;;;;5078655;28;20263;-78